Bowman, South Carolina
Current Conditions -  °F | °C
As of 1:53 AM on Monday 24 Nov 2014 (Local Time) from KOGB Reporting Station
Overcast Overcast  
Wind Chill: 68°   Ceiling: 1200
Heat Index: 68°   Visibility: 10mi
Dew Point: 64°   Wind: 12mph
Humidity: 87%   Direction: 230°SW
Pressure: 29.8"   Gusts: NA
Location:  33.35°N, 80.68°W
Report Text: KOGB 240653Z AUTO 23010KT 10SM OVC012 20/18 A2980 RMK AO2 SLP088 T02000178
Loading
Personal Weather Stations






























Interactive Weather Map New forecast layout! Learn more

10-Day Weather Forecast

Advertisements
Track Severe Weather on mobile